Terminal Aerodrome Forecast
Issued by NWS

Home | Current Version | Previous Version | Text Only | Print | Product List | Glossary Off
Versions: 1 2 3 4 5 6 7 8 9 10 11 12 13 14 15 16 17 18

000
FTUS43 KICT 242059 AAA
TAFRSL
TAF AMD
KRSL 242059Z 2421/2518 34012G20KT P6SM SKC
     FM242300 31008KT P6SM SKC
     FM250300 24006KT P6SM SKC
     FM251600 23011KT P6SM BKN100=

USA.gov is the U.S. government's official web portal to all federal, state and local government web resources and services.